Time;durP1;ratioP1;P1;durP2;ratioP2;P2;SDS_P1;SDS_P2;PMS_P1;PMS_P2;Temp;Humidity;BMP_temperature;BMP_pressure;BME280_temperature;BME280_humidity;BME280_pressure;Samples;Min_cycle;Max_cycle;Signal;HPM_P1;HPM_P2
2021/07/09 00:01:21;;;;;;;1999.90;999.90;;;;;;;21.95;89.04;96201.72;5152679;27;20177;-75
2021/07/09 00:03:49;;;;;;;1999.90;999.90;;;;;;;21.87;89.45;96200.00;5152521;27;20585;-76
2021/07/09 00:06:17;;;;;;;1999.90;999.90;;;;;;;21.86;89.35;96193.19;5152750;27;20242;-75
2021/07/09 00:08:44;;;;;;;1999.90;999.90;;;;;;;21.76;90.33;96191.09;5142584;27;20199;-76
2021/07/09 00:11:13;;;;;;;1999.90;999.90;;;;;;;21.84;90.18;96198.06;5131617;27;20230;-76
2021/07/09 00:13:40;;;;;;;1999.90;999.90;;;;;;;21.84;89.94;96190.13;5131985;27;20251;-75
2021/07/09 00:16:07;;;;;;;1999.90;999.90;;;;;;;21.82;89.97;96184.38;5131561;27;20275;-74
2021/07/09 00:18:34;;;;;;;1999.90;999.90;;;;;;;21.73;90.45;96181.97;5131988;27;20559;-74
2021/07/09 00:21:01;;;;;;;1999.90;999.90;;;;;;;21.67;91.10;96186.00;5131334;27;20251;-74
2021/07/09 00:23:29;;;;;;;1999.90;999.90;;;;;;;21.67;91.47;96175.41;5131582;27;20247;-74
2021/07/09 00:25:56;;;;;;;1999.90;999.90;;;;;;;21.69;91.32;96170.53;5131350;27;20195;-75
2021/07/09 00:28:24;;;;;;;1999.90;999.90;;;;;;;21.74;90.96;96172.16;5131629;27;20213;-73
2021/07/09 00:30:51;;;;;;;1999.90;999.90;;;;;;;21.70;91.15;96174.72;5131565;27;20199;-75
2021/07/09 00:33:19;;;;;;;1999.90;999.90;;;;;;;21.71;90.85;96173.63;5131138;27;20282;-72
2021/07/09 00:35:46;;;;;;;1999.90;999.90;;;;;;;21.63;91.37;96171.16;5131500;27;20190;-74
2021/07/09 00:38:13;;;;;;;1999.90;999.90;;;;;;;21.66;91.67;96175.78;5131456;27;20202;-74
2021/07/09 00:40:41;;;;;;;1999.90;999.90;;;;;;;21.58;91.69;96174.06;5131324;27;20202;-75
2021/07/09 00:43:08;;;;;;;1999.90;999.90;;;;;;;21.45;92.64;96176.09;5131373;27;20206;-75
2021/07/09 00:45:36;;;;;;;1999.90;999.90;;;;;;;21.36;93.44;96170.22;5130104;27;20194;-75
2021/07/09 00:48:04;;;;;;;1999.90;999.90;;;;;;;21.45;92.76;96168.16;5130857;27;20214;-76
2021/07/09 00:50:31;;;;;;;1999.90;999.90;;;;;;;21.37;92.69;96163.84;5131160;27;20243;-77
2021/07/09 00:52:58;;;;;;;1999.90;999.90;;;;;;;21.45;92.72;96162.88;5130889;27;20205;-77
2021/07/09 00:55:26;;;;;;;1999.90;999.90;;;;;;;21.41;92.10;96160.16;5131076;27;20222;-78
2021/07/09 00:57:54;;;;;;;1999.90;999.90;;;;;;;21.26;93.15;96158.31;5131149;27;20658;-77
2021/07/09 01:00:23;;;;;;;1999.90;999.90;;;;;;;21.22;93.50;96152.16;5131092;27;20727;-72
2021/07/09 01:02:52;;;;;;;1999.90;999.90;;;;;;;21.12;94.59;96144.00;5139056;27;20202;-73
2021/07/09 01:05:19;;;;;;;1999.90;999.90;;;;;;;21.12;94.21;96150.03;5151595;27;20193;-76
2021/07/09 01:07:47;;;;;;;1999.90;999.90;;;;;;;21.08;94.80;96156.34;5151681;27;20387;-77
2021/07/09 01:10:17;;;;;;;1999.90;999.90;;;;;;;20.88;95.87;96158.16;5151250;27;20194;-77
2021/07/09 01:12:46;;;;;;;1999.90;999.90;;;;;;;20.56;95.45;96174.03;5151179;27;20230;-73
2021/07/09 01:15:15;;;;;;;1999.90;999.90;;;;;;;20.31;96.45;96172.66;5151153;27;20273;-76
2021/07/09 01:17:43;;;;;;;1999.90;999.90;;;;;;;20.17;97.07;96178.28;5151480;27;20669;-75
2021/07/09 01:20:14;;;;;;;1999.90;999.90;;;;;;;20.23;97.37;96181.44;5151119;27;20205;-75
2021/07/09 01:22:43;;;;;;;1999.90;999.90;;;;;;;20.24;97.92;96182.97;5151315;27;20217;-75
2021/07/09 01:25:14;;;;;;;1999.90;999.90;;;;;;;20.22;98.46;96182.56;5150957;27;20193;-75
2021/07/09 01:27:43;;;;;;;1999.90;999.90;;;;;;;20.24;98.55;96185.63;5151013;27;20194;-76
2021/07/09 01:30:14;;;;;;;1999.90;999.90;;;;;;;20.19;97.99;96175.31;5151196;27;20738;-76
2021/07/09 01:32:41;;;;;;;1999.90;999.90;;;;;;;20.02;99.34;96180.91;5149477;27;20190;-78
2021/07/09 01:35:09;;;;;;;1999.90;999.90;;;;;;;20.15;99.01;96177.09;5151116;27;20229;-76
2021/07/09 01:37:36;;;;;;;1999.90;999.90;;;;;;;20.14;98.53;96173.69;5151154;27;20816;-76
2021/07/09 01:40:07;;;;;;;1999.90;999.90;;;;;;;20.20;98.50;96182.13;5150642;27;20201;-77
2021/07/09 01:42:36;;;;;;;1999.90;999.90;;;;;;;20.22;98.37;96187.06;5151253;27;20189;-75
2021/07/09 01:45:04;;;;;;;1999.90;999.90;;;;;;;20.25;98.16;96179.25;5150969;27;20217;-75
2021/07/09 01:47:31;;;;;;;1999.90;999.90;;;;;;;20.30;98.02;96181.63;5150678;27;20576;-77
2021/07/09 01:49:59;;;;;;;1999.90;999.90;;;;;;;20.28;97.75;96183.06;5150511;27;20297;-75
2021/07/09 01:52:27;;;;;;;1999.90;999.90;;;;;;;20.22;98.00;96179.16;5151076;27;20194;-74
2021/07/09 01:54:55;;;;;;;1999.90;999.90;;;;;;;20.23;97.79;96183.31;5150843;27;20221;-74
2021/07/09 01:57:23;;;;;;;1999.90;999.90;;;;;;;20.32;96.93;96183.97;5151126;27;20558;-77
2021/07/09 01:59:51;;;;;;;1999.90;999.90;;;;;;;20.24;97.23;96182.97;5150785;27;20250;-75
2021/07/09 02:02:18;;;;;;;1999.90;999.90;;;;;;;20.29;97.03;96187.25;5146824;27;20721;-77
2021/07/09 02:04:50;;;;;;;1999.90;999.90;;;;;;;20.40;96.02;96181.16;5147859;27;20193;-76
2021/07/09 02:07:18;;;;;;;1999.90;999.90;;;;;;;20.40;96.31;96183.81;5149102;27;20190;-72
2021/07/09 02:09:46;;;;;;;1999.90;999.90;;;;;;;20.37;96.17;96183.72;5149539;27;20197;-73
2021/07/09 02:12:15;;;;;;;1999.90;999.90;;;;;;;20.34;96.46;96185.16;5148106;27;20246;-74
2021/07/09 02:14:42;;;;;;;1999.90;999.90;;;;;;;20.29;96.80;96187.25;5143795;27;20257;-74
2021/07/09 02:17:13;;;;;;;1999.90;999.90;;;;;;;20.14;97.61;96178.19;5133978;27;20274;-73
2021/07/09 02:19:42;;;;;;;1999.90;999.90;;;;;;;20.09;98.40;96175.78;5150479;27;20692;-74
2021/07/09 02:22:12;;;;;;;1999.90;999.90;;;;;;;20.10;98.44;96185.25;5150350;27;20198;-76
2021/07/09 02:24:41;;;;;;;1999.90;999.90;;;;;;;20.15;97.70;96187.66;5139415;27;21024;-76
2021/07/09 02:27:08;;;;;;;1999.90;999.90;;;;;;;19.99;98.32;96178.91;5129966;27;20255;-74
2021/07/09 02:29:36;;;;;;;1999.90;999.90;;;;;;;20.01;98.31;96184.63;5129408;27;20693;-75
2021/07/09 02:32:06;;;;;;;1999.90;999.90;;;;;;;20.05;98.57;96188.13;5129525;27;20280;-73
2021/07/09 02:34:36;;;;;;;1999.90;999.90;;;;;;;19.93;99.19;96182.88;5129000;27;20230;-76
2021/07/09 02:37:04;;;;;;;1999.90;999.90;;;;;;;19.83;99.95;96189.41;5129304;27;20255;-74
2021/07/09 02:39:31;;;;;;;1999.90;999.90;;;;;;;19.77;100.00;96180.22;5129959;27;20214;-84
2021/07/09 02:41:59;;;;;;;1999.90;999.90;;;;;;;19.82;100.00;96177.34;5130976;27;20228;-82
2021/07/09 02:44:27;;;;;;;1999.90;999.90;;;;;;;19.81;100.00;96180.31;5147851;27;20266;-83
2021/07/09 02:46:55;;;;;;;1999.90;999.90;;;;;;;19.74;100.00;96178.25;5149973;27;20305;-70
2021/07/09 02:49:22;;;;;;;1999.90;999.90;;;;;;;19.70;100.00;96175.50;5150068;27;20201;-70
2021/07/09 02:51:51;;;;;;;1999.90;999.90;;;;;;;19.71;100.00;96182.31;5150277;27;20232;-74
2021/07/09 02:54:19;;;;;;;1999.90;999.90;;;;;;;19.68;100.00;96182.97;5149386;27;20218;-70
2021/07/09 02:56:46;;;;;;;1999.90;999.90;;;;;;;19.68;100.00;96177.69;5150352;27;20285;-80
2021/07/09 02:59:14;;;;;;;1999.90;999.90;;;;;;;19.67;100.00;96184.09;5148281;27;20223;-75
2021/07/09 03:01:42;;;;;;;1999.90;999.90;;;;;;;19.69;100.00;96183.75;5149997;27;20653;-73
2021/07/09 03:04:09;;;;;;;1999.90;999.90;;;;;;;19.64;100.00;96176.06;5141510;27;20256;-84
2021/07/09 03:06:36;;;;;;;1999.90;999.90;;;;;;;19.72;100.00;96178.59;5129183;27;20255;-79
2021/07/09 03:09:06;;;;;;;1999.90;999.90;;;;;;;19.78;99.96;96187.00;5132645;27;20629;-82
2021/07/09 03:11:33;;;;;;;1999.90;999.90;;;;;;;19.57;100.00;96192.47;5133623;27;20230;-88
2021/07/09 03:14:01;;;;;;;1999.90;999.90;;;;;;;19.32;100.00;96191.72;5139484;27;20209;-84
2021/07/09 03:16:28;;;;;;;1999.90;999.90;;;;;;;19.25;100.00;96190.72;5153662;27;20201;-79
2021/07/09 03:18:55;;;;;;;1999.90;999.90;;;;;;;19.26;100.00;96194.91;5157169;27;20202;-78
2021/07/09 03:21:22;;;;;;;1999.90;999.90;;;;;;;19.22;100.00;96192.16;5153509;27;20443;-84
2021/07/09 03:23:49;;;;;;;1999.90;999.90;;;;;;;19.13;100.00;96188.84;5147048;27;20834;-73
2021/07/09 03:26:18;;;;;;;1999.90;999.90;;;;;;;19.08;100.00;96190.97;5146437;27;20652;-76
2021/07/09 03:28:45;;;;;;;1999.90;999.90;;;;;;;18.99;100.00;96198.97;5152975;27;20832;-73
2021/07/09 03:31:12;;;;;;;1999.90;999.90;;;;;;;19.11;100.00;96198.22;5135824;27;20199;-72
2021/07/09 03:33:39;;;;;;;1999.90;999.90;;;;;;;19.10;100.00;96197.44;5152655;27;20304;-74
2021/07/09 03:36:07;;;;;;;1999.90;999.90;;;;;;;19.15;100.00;96191.16;5153136;27;20665;-85
2021/07/09 03:38:34;;;;;;;1999.90;999.90;;;;;;;19.10;100.00;96194.03;5151241;27;20729;-82
2021/07/09 03:41:01;;;;;;;1999.90;999.90;;;;;;;19.05;100.00;96194.25;5150579;27;20354;-78
2021/07/09 03:43:29;;;;;;;1999.90;999.90;;;;;;;18.99;100.00;96192.94;5141804;27;20210;-83
2021/07/09 03:45:56;;;;;;;1999.90;999.90;;;;;;;18.96;100.00;96188.31;5132086;27;20203;-81
2021/07/09 03:48:24;;;;;;;1999.90;999.90;;;;;;;19.01;100.00;96203.91;5139269;27;20205;-71
2021/07/09 03:50:52;;;;;;;1999.90;999.90;;;;;;;19.04;100.00;96195.34;5143964;27;21011;-72
2021/07/09 03:53:20;;;;;;;1999.90;999.90;;;;;;;19.18;100.00;96198.41;5131111;27;20710;-81
2021/07/09 03:55:47;;;;;;;1999.90;999.90;;;;;;;19.08;100.00;96190.97;5141762;27;20312;-79
2021/07/09 03:58:14;;;;;;;1999.90;999.90;;;;;;;19.09;100.00;96195.13;5152135;27;20205;-81
2021/07/09 04:00:42;;;;;;;1999.90;999.90;;;;;;;19.16;100.00;96190.06;5150099;27;20249;-79
2021/07/09 04:03:10;;;;;;;1999.90;999.90;;;;;;;19.21;100.00;96200.41;5149334;27;20224;-79
2021/07/09 04:05:37;;;;;;;1999.90;999.90;;;;;;;19.35;100.00;96185.78;5149636;27;20270;-79
2021/07/09 04:08:04;;;;;;;1999.90;999.90;;;;;;;19.47;100.00;96187.66;5149737;27;20202;-81
2021/07/09 04:10:32;;;;;;;1999.90;999.90;;;;;;;19.60;100.00;96193.66;5149955;27;20789;-80
2021/07/09 04:12:59;;;;;;;1999.90;999.90;;;;;;;19.65;100.00;96188.94;5141322;27;20270;-78
2021/07/09 04:15:26;;;;;;;1999.90;999.90;;;;;;;19.62;100.00;96184.34;5129011;27;20222;-81
2021/07/09 04:17:54;;;;;;;1999.90;999.90;;;;;;;19.69;100.00;96186.38;5131276;27;20198;-82
2021/07/09 04:20:21;;;;;;;1999.90;999.90;;;;;;;19.80;100.00;96194.59;5132219;27;20198;-78
2021/07/09 04:22:48;;;;;;;1999.90;999.90;;;;;;;19.86;100.00;96188.00;5131970;27;20194;-78
2021/07/09 04:25:15;;;;;;;1999.90;999.90;;;;;;;20.09;100.00;96187.13;5131617;27;20231;-77
2021/07/09 04:27:43;;;;;;;1999.90;999.90;;;;;;;20.27;100.00;96186.84;5131902;27;20202;-81
2021/07/09 04:30:12;;;;;;;1999.90;999.90;;;;;;;20.47;100.00;96191.91;5132002;27;20210;-80
2021/07/09 04:32:39;;;;;;;1999.90;999.90;;;;;;;20.81;99.87;96185.22;5131520;27;20198;-78
2021/07/09 04:35:10;;;;;;;1999.90;999.90;;;;;;;21.31;96.03;96194.31;5131382;27;20226;-83
2021/07/09 04:37:37;;;;;;;1999.90;999.90;;;;;;;21.76;93.56;96196.38;5131749;27;20540;-81
2021/07/09 04:40:06;;;;;;;1999.90;999.90;;;;;;;22.17;91.02;96195.69;5138793;27;20209;-78
2021/07/09 04:42:33;;;;;;;1999.90;999.90;;;;;;;22.87;87.77;96194.66;5152281;27;20281;-71
2021/07/09 04:45:00;;;;;;;1999.90;999.90;;;;;;;23.36;86.51;96198.03;5133805;27;20205;-71
2021/07/09 04:47:27;;;;;;;1999.90;999.90;;;;;;;23.84;83.94;96199.09;5131454;27;20209;-72
2021/07/09 04:49:54;;;;;;;1999.90;999.90;;;;;;;24.24;81.42;96203.00;5149395;27;20206;-72
2021/07/09 04:52:23;;;;;;;1999.90;999.90;;;;;;;24.50;79.89;96204.78;5152011;27;20251;-72
2021/07/09 04:54:50;;;;;;;1999.90;999.90;;;;;;;24.59;79.38;96199.94;5151638;27;20728;-72
2021/07/09 04:57:17;;;;;;;1999.90;999.90;;;;;;;24.43;80.25;96195.59;5151583;27;20196;-74
2021/07/09 04:59:44;;;;;;;1999.90;999.90;;;;;;;24.27;80.00;96195.06;5151568;27;20257;-75
2021/07/09 05:02:11;;;;;;;1999.90;999.90;;;;;;;24.33;79.72;96192.84;5151373;27;20624;-75
2021/07/09 05:04:38;;;;;;;1999.90;999.90;;;;;;;24.60;77.53;96188.94;5152131;27;20194;-73
2021/07/09 05:07:05;;;;;;;1999.90;999.90;;;;;;;24.72;77.62;96187.88;5152124;27;20190;-73
2021/07/09 05:09:33;;;;;;;1999.90;999.90;;;;;;;24.68;78.03;96185.19;5151466;27;20205;-71
2021/07/09 05:12:01;;;;;;;1999.90;999.90;;;;;;;24.68;76.94;96179.88;5151166;27;20230;-74
2021/07/09 05:14:28;;;;;;;1999.90;999.90;;;;;;;24.77;76.50;96180.34;5151303;27;20241;-73
2021/07/09 05:16:55;;;;;;;1999.90;999.90;;;;;;;24.71;76.98;96176.47;5151230;27;20221;-72
2021/07/09 05:19:22;;;;;;;1999.90;999.90;;;;;;;24.86;76.62;96178.13;5151248;27;20246;-72
2021/07/09 05:21:49;;;;;;;1999.90;999.90;;;;;;;24.83;75.95;96178.09;5151637;27;20202;-72
2021/07/09 05:24:17;;;;;;;1999.90;999.90;;;;;;;24.99;75.85;96178.63;5151471;27;20201;-71
2021/07/09 05:26:47;;;;;;;1999.90;999.90;;;;;;;25.10;74.82;96170.75;5151400;27;20193;-71
2021/07/09 05:29:14;;;;;;;1999.90;999.90;;;;;;;25.09;77.11;96177.19;5150982;27;20548;-69
2021/07/09 05:31:42;;;;;;;1999.90;999.90;;;;;;;25.21;76.95;96168.88;5150829;27;20250;-70
2021/07/09 05:34:09;;;;;;;1999.90;999.90;;;;;;;25.44;74.88;96166.75;5151004;27;20300;-67
2021/07/09 05:36:37;;;;;;;1999.90;999.90;;;;;;;25.29;75.43;96168.59;5151158;27;20298;-66
2021/07/09 05:39:05;;;;;;;1999.90;999.90;;;;;;;25.37;75.45;96163.28;5151114;27;20198;-69
2021/07/09 05:41:32;;;;;;;1999.90;999.90;;;;;;;25.37;75.46;96158.72;5150859;27;20190;-70
2021/07/09 05:44:01;;;;;;;1999.90;999.90;;;;;;;25.43;75.06;96162.56;5151354;27;20197;-69
2021/07/09 05:46:28;;;;;;;1999.90;999.90;;;;;;;25.34;74.75;96167.47;5151030;27;20223;-69
2021/07/09 05:48:55;;;;;;;1999.90;999.90;;;;;;;25.50;75.69;96167.94;5151002;27;20281;-70
2021/07/09 05:51:22;;;;;;;1999.90;999.90;;;;;;;25.58;76.19;96158.88;5150971;27;20193;-68
2021/07/09 05:53:49;;;;;;;1999.90;999.90;;;;;;;25.49;75.72;96163.75;5150926;27;20202;-67
2021/07/09 05:56:16;;;;;;;1999.90;999.90;;;;;;;25.51;74.78;96166.00;5131041;27;20234;-68
2021/07/09 05:58:43;;;;;;;1999.90;999.90;;;;;;;25.64;75.10;96161.94;5129943;27;20205;-68
2021/07/09 06:01:12;;;;;;;1999.90;999.90;;;;;;;25.74;75.96;96163.13;5133366;27;20202;-68
2021/07/09 06:03:39;;;;;;;1999.90;999.90;;;;;;;25.97;74.35;96163.56;5150958;27;20213;-67
2021/07/09 06:06:06;;;;;;;1999.90;999.90;;;;;;;26.04;75.36;96161.72;5150551;27;20227;-67
2021/07/09 06:08:33;;;;;;;1999.90;999.90;;;;;;;26.07;74.40;96165.50;5150810;27;20197;-69
2021/07/09 06:11:00;;;;;;;1999.90;999.90;;;;;;;26.23;74.44;96165.97;5150643;27;20721;-69
2021/07/09 06:13:27;;;;;;;1999.90;999.90;;;;;;;26.33;73.65;96164.47;5147257;27;20556;-69
2021/07/09 06:15:56;;;;;;;1999.90;999.90;;;;;;;26.37;72.77;96165.22;5150715;27;20229;-69
2021/07/09 06:18:24;;;;;;;1999.90;999.90;;;;;;;26.40;73.51;96167.16;5150432;27;20229;-68
2021/07/09 06:20:51;;;;;;;1999.90;999.90;;;;;;;26.43;72.88;96164.47;5150654;27;20685;-69
2021/07/09 06:23:18;;;;;;;1999.90;999.90;;;;;;;26.48;72.54;96160.69;5150360;27;20246;-70
2021/07/09 06:25:45;;;;;;;1999.90;999.90;;;;;;;26.38;73.67;96158.75;5150552;27;20665;-69
2021/07/09 06:28:13;;;;;;;1999.90;999.90;;;;;;;26.38;71.90;96159.53;5150508;27;20630;-68
2021/07/09 06:30:40;;;;;;;1999.90;999.90;;;;;;;26.55;72.30;96164.09;5150362;27;20246;-68
2021/07/09 06:33:09;;;;;;;1999.90;999.90;;;;;;;26.73;72.62;96160.69;5150653;27;20254;-69
2021/07/09 06:35:37;;;;;;;1999.90;999.90;;;;;;;27.03;70.50;96163.75;5150334;27;20239;-71
2021/07/09 06:38:05;;;;;;;1999.90;999.90;;;;;;;27.17;70.89;96165.63;5150529;27;20291;-71
2021/07/09 06:40:32;;;;;;;1999.90;999.90;;;;;;;27.28;69.30;96156.47;5150306;27;20669;-70
2021/07/09 06:42:59;;;;;;;1999.90;999.90;;;;;;;27.41;67.67;96154.13;5150298;27;20190;-69
2021/07/09 06:45:26;;;;;;;1999.90;999.90;;;;;;;27.47;68.61;96154.50;5154558;27;20194;-69
2021/07/09 06:47:53;;;;;;;1999.90;999.90;;;;;;;27.71;67.61;96154.47;5154291;27;20250;-69
2021/07/09 06:50:21;;;;;;;1999.90;999.90;;;;;;;27.57;66.39;96159.09;5154168;27;20198;-69
2021/07/09 06:52:50;;;;;;;1999.90;999.90;;;;;;;27.69;66.88;96148.75;5154305;27;20687;-68
2021/07/09 06:55:18;;;;;;;1999.90;999.90;;;;;;;27.67;68.14;96152.94;5154220;27;20190;-69
2021/07/09 06:57:48;;;;;;;1999.90;999.90;;;;;;;27.80;65.62;96151.34;5153940;27;20208;-68
2021/07/09 07:00:17;;;;;;;1999.90;999.90;;;;;;;27.76;68.18;96135.34;5154554;27;20197;-68
2021/07/09 07:02:44;;;;;;;1999.90;999.90;;;;;;;27.86;66.87;96141.78;5153665;27;20190;-69
2021/07/09 07:05:13;;;;;;;1999.90;999.90;;;;;;;28.08;66.22;96137.88;5154072;27;20201;-68
2021/07/09 07:07:40;;;;;;;1999.90;999.90;;;;;;;28.18;63.67;96129.06;5154125;27;20699;-68
2021/07/09 07:10:10;;;;;;;1999.90;999.90;;;;;;;28.30;65.44;96140.44;5154040;27;20247;-70
2021/07/09 07:12:38;;;;;;;1999.90;999.90;;;;;;;28.02;63.09;96131.41;5153571;27;20709;-70
2021/07/09 07:15:07;;;;;;;1999.90;999.90;;;;;;;28.18;64.17;96123.72;5154082;27;20201;-69
2021/07/09 07:17:35;;;;;;;1999.90;999.90;;;;;;;28.28;64.82;96129.38;5153876;27;20225;-69
2021/07/09 07:20:02;;;;;;;1999.90;999.90;;;;;;;28.22;65.37;96127.13;5154014;27;20200;-70
2021/07/09 07:22:29;;;;;;;1999.90;999.90;;;;;;;28.38;62.21;96129.31;5153401;27;20756;-74
2021/07/09 07:24:56;;;;;;;1999.90;999.90;;;;;;;28.45;61.99;96129.25;5153508;27;20669;-68
2021/07/09 07:27:27;;;;;;;1999.90;999.90;;;;;;;28.29;61.82;96129.00;5153308;27;20661;-69
2021/07/09 07:29:55;;;;;;;1999.90;999.90;;;;;;;28.21;63.66;96122.16;5153695;27;20185;-67
2021/07/09 07:32:22;;;;;;;1999.90;999.90;;;;;;;28.35;62.85;96132.00;5153257;27;20254;-68
2021/07/09 07:34:49;;;;;;;1999.90;999.90;;;;;;;28.45;63.93;96121.22;5153535;27;20231;-67
2021/07/09 07:37:16;;;;;;;1999.90;999.90;;;;;;;28.81;62.98;96124.41;5153060;27;20217;-67
2021/07/09 07:39:43;;;;;;;1999.90;999.90;;;;;;;28.82;62.36;96115.22;5153471;27;20566;-68
2021/07/09 07:42:10;;;;;;;1999.90;999.90;;;;;;;28.92;61.99;96111.69;5153442;27;20198;-69
2021/07/09 07:44:39;;;;;;;1999.90;999.90;;;;;;;29.02;60.24;96115.44;5153014;27;20200;-68
2021/07/09 07:47:06;;;;;;;1999.90;999.90;;;;;;;29.00;59.53;96118.50;5152930;27;20293;-69
2021/07/09 07:49:33;;;;;;;1999.90;999.90;;;;;;;28.95;60.25;96120.84;5153059;27;20699;-69
2021/07/09 07:52:00;;;;;;;1999.90;999.90;;;;;;;29.23;60.47;96114.44;5152887;27;20194;-68
2021/07/09 07:54:29;;;;;;;1999.90;999.90;;;;;;;29.29;57.51;96112.88;5152695;27;20200;-68
2021/07/09 07:56:56;;;;;;;1999.90;999.90;;;;;;;29.22;60.12;96105.66;5153140;27;20218;-65
2021/07/09 07:59:23;;;;;;;1999.90;999.90;;;;;;;29.15;61.16;96105.72;5152851;27;20730;-63
2021/07/09 08:01:51;;;;;;;1999.90;999.90;;;;;;;29.28;58.01;96104.06;5152984;27;20206;-63
2021/07/09 08:04:18;;;;;;;1999.90;999.90;;;;;;;29.56;58.08;96100.31;5152700;27;20212;-63
2021/07/09 08:06:45;;;;;;;1999.90;999.90;;;;;;;29.61;56.79;96094.50;5152995;27;20242;-64
2021/07/09 08:09:12;;;;;;;1999.90;999.90;;;;;;;29.80;56.43;96088.53;5134991;27;20681;-64
2021/07/09 08:11:39;;;;;;;1999.90;999.90;;;;;;;29.82;57.61;96091.56;5131735;27;21203;-64
2021/07/09 08:14:06;;;;;;;1999.90;999.90;;;;;;;30.00;55.97;96087.91;5131949;27;20259;-64
2021/07/09 08:16:34;;;;;;;1999.90;999.90;;;;;;;29.99;53.60;96083.72;5132181;27;20245;-64
2021/07/09 08:19:02;;;;;;;1999.90;999.90;;;;;;;29.99;54.80;96078.34;5132047;27;20202;-63
2021/07/09 08:21:29;;;;;;;1999.90;999.90;;;;;;;30.14;54.28;96076.97;5131744;27;20191;-63
2021/07/09 08:23:56;;;;;;;1999.90;999.90;;;;;;;30.30;54.53;96083.22;5131727;27;20198;-64
2021/07/09 08:26:23;;;;;;;1999.90;999.90;;;;;;;29.36;56.30;96080.66;5131509;27;20198;-64
2021/07/09 08:28:50;;;;;;;1999.90;999.90;;;;;;;29.64;54.75;96074.22;5131878;27;20251;-63
2021/07/09 08:31:17;;;;;;;1999.90;999.90;;;;;;;29.77;54.99;96077.84;5131507;27;20259;-63
2021/07/09 08:33:44;;;;;;;1999.90;999.90;;;;;;;29.95;55.54;96078.38;5131824;27;20203;-63
2021/07/09 08:36:13;;;;;;;1999.90;999.90;;;;;;;30.10;53.95;96074.34;5131701;27;20700;-64
2021/07/09 08:38:40;;;;;;;1999.90;999.90;;;;;;;30.34;53.61;96075.13;5131435;27;20218;-64
2021/07/09 08:41:07;;;;;;;1999.90;999.90;;;;;;;30.45;53.93;96066.91;5131558;27;20234;-64
2021/07/09 08:43:34;;;;;;;1999.90;999.90;;;;;;;30.50;51.03;96064.53;5131574;27;20210;-64
2021/07/09 08:46:02;;;;;;;1999.90;999.90;;;;;;;30.61;50.70;96070.50;5131219;27;20693;-64
2021/07/09 08:48:30;;;;;;;1999.90;999.90;;;;;;;30.61;52.57;96062.44;5131259;27;20194;-64
2021/07/09 08:51:00;;;;;;;1999.90;999.90;;;;;;;30.59;51.65;96054.03;5131143;27;20202;-64
2021/07/09 08:53:29;;;;;;;1999.90;999.90;;;;;;;30.80;50.38;96063.66;5131259;27;20190;-64
2021/07/09 08:55:56;;;;;;;1999.90;999.90;;;;;;;30.87;50.19;96062.78;5130910;27;20202;-64
2021/07/09 08:58:23;;;;;;;1999.90;999.90;;;;;;;30.91;50.26;96060.78;5130909;27;20198;-64
2021/07/09 09:00:50;;;;;;;1999.90;999.90;;;;;;;30.95;49.26;96056.84;5131680;27;20198;-63
2021/07/09 09:03:20;;;;;;;1999.90;999.90;;;;;;;30.92;50.51;96059.63;5151913;27;20193;-63
2021/07/09 09:05:48;;;;;;;1999.90;999.90;;;;;;;31.08;49.48;96065.09;5150858;27;20614;-63
2021/07/09 09:08:17;;;;;;;1999.90;999.90;;;;;;;31.21;51.24;96057.94;5151465;27;20204;-63
2021/07/09 09:10:48;;;;;;;1999.90;999.90;;;;;;;31.19;48.07;96062.94;5151214;27;20194;-63
2021/07/09 09:13:16;;;;;;;1999.90;999.90;;;;;;;31.28;48.18;96057.81;5151875;27;20229;-63
2021/07/09 09:29:39;;;;;;;1999.90;999.90;;;;;;;31.58;46.23;96038.03;5087373;27;20567;-66
2021/07/09 09:32:09;;;;;;;1999.90;999.90;;;;;;;31.60;45.92;96036.44;5097038;28;20233;-66
2021/07/09 09:34:37;;;;;;;1999.90;999.90;;;;;;;31.54;46.49;96040.00;5095317;28;20261;-66
2021/07/09 09:37:04;;;;;;;1999.90;999.90;;;;;;;31.63;46.44;96034.09;5086039;28;20198;-66
2021/07/09 09:39:32;;;;;;;1999.90;999.90;;;;;;;31.79;46.99;96026.03;5086392;28;20195;-66
2021/07/09 09:42:17;;;;;;;1999.90;999.90;;;;;;;31.54;46.74;96032.69;5086128;28;20204;-66
2021/07/09 09:44:46;;;;;;;1999.90;999.90;;;;;;;31.39;47.36;96036.09;5086058;28;20199;-66
2021/07/09 09:47:16;;;;;;;1999.90;999.90;;;;;;;31.46;45.68;96031.34;5085962;28;20211;-66
2021/07/09 09:49:44;;;;;;;1999.90;999.90;;;;;;;31.85;46.46;96025.13;5085653;28;20202;-67
2021/07/09 09:52:12;;;;;;;1999.90;999.90;;;;;;;32.30;45.73;96016.41;5085615;28;20199;-67
2021/07/09 09:54:39;;;;;;;1999.90;999.90;;;;;;;32.23;44.80;96028.09;5085693;28;20196;-66
2021/07/09 09:57:15;;;;;;;1999.90;999.90;;;;;;;32.04;44.52;96028.91;5085646;28;20196;-67
2021/07/09 09:59:45;;;;;;;1999.90;999.90;;;;;;;32.09;46.65;96028.41;5086110;28;20287;-66
2021/07/09 10:02:14;;;;;;;1999.90;999.90;;;;;;;32.24;46.02;96023.47;5086048;28;20312;-66
2021/07/09 10:04:42;;;;;;;1999.90;999.90;;;;;;;32.19;46.63;96016.69;5086004;28;20192;-66
2021/07/09 10:07:10;;;;;;;1999.90;999.90;;;;;;;32.13;45.43;96015.66;5085495;28;20203;-66
2021/07/09 10:09:37;;;;;;;1999.90;999.90;;;;;;;32.22;45.41;96009.72;5085581;28;20200;-66
2021/07/09 10:12:06;;;;;;;1999.90;999.90;;;;;;;32.31;44.95;96018.69;5085582;28;20196;-66
2021/07/09 10:14:36;;;;;;;1999.90;999.90;;;;;;;32.27;44.95;96011.91;5104821;28;20229;-66
2021/07/09 10:17:05;;;;;;;1999.90;999.90;;;;;;;32.25;44.85;96009.63;5105487;28;20213;-66
2021/07/09 10:19:38;;;;;;;1999.90;999.90;;;;;;;32.26;44.71;96010.38;5099188;28;20281;-66
2021/07/09 10:22:06;;;;;;;1999.90;999.90;;;;;;;32.23;43.95;96000.47;5085532;28;20238;-66
2021/07/09 10:24:35;;;;;;;1999.90;999.90;;;;;;;32.37;46.71;95995.50;5085523;28;20223;-66
2021/07/09 10:27:05;;;;;;;1999.90;999.90;;;;;;;32.44;44.72;95995.28;5085218;28;20196;-66
2021/07/09 10:29:34;;;;;;;1999.90;999.90;;;;;;;32.45;45.17;95991.44;5077560;28;20718;-66
2021/07/09 10:32:04;;;;;;;1999.90;999.90;;;;;;;32.40;44.59;95991.94;5071558;28;20296;-66
2021/07/09 10:34:35;;;;;;;1999.90;999.90;;;;;;;32.47;45.23;95981.00;5071901;28;20200;-66
2021/07/09 10:37:05;;;;;;;1999.90;999.90;;;;;;;32.63;42.84;95979.47;5071680;28;20189;-66
2021/07/09 10:39:41;;;;;;;1999.90;999.90;;;;;;;32.63;45.12;95974.06;5071525;28;20204;-66
2021/07/09 10:42:26;;;;;;;1999.90;999.90;;;;;;;32.73;43.92;95962.25;5071818;28;20207;-66
2021/07/09 10:45:08;;;;;;;1999.90;999.90;;;;;;;32.61;44.08;95961.03;5070278;28;20214;-66
2021/07/09 10:47:40;;;;;;;1999.90;999.90;;;;;;;32.87;43.39;95956.50;5071550;28;20214;-66
2021/07/09 10:50:10;;;;;;;1999.90;999.90;;;;;;;32.76;44.03;95961.44;5071302;28;20197;-67
2021/07/09 10:53:02;;;;;;;1999.90;999.90;;;;;;;32.50;43.13;95960.53;5071437;28;20208;-67
2021/07/09 10:56:04;;;;;;;1999.90;999.90;;;;;;;32.52;44.33;95962.81;5071059;28;20181;-66
2021/07/09 10:58:59;;;;;;;1999.90;999.90;;;;;;;33.03;43.07;95958.38;5065180;28;20224;-66
2021/07/09 11:01:31;;;;;;;1999.90;999.90;;;;;;;32.86;43.58;95949.59;5070881;28;20185;-66
2021/07/09 11:04:14;;;;;;;1999.90;999.90;;;;;;;32.74;42.24;95943.00;5070884;28;20587;-67
2021/07/09 11:06:43;;;;;;;1999.90;999.90;;;;;;;32.94;42.50;95939.38;5071120;28;20564;-65
2021/07/09 11:09:12;;;;;;;1999.90;999.90;;;;;;;33.04;40.15;95944.47;5070841;28;20204;-66
2021/07/09 11:11:45;;;;;;;1999.90;999.90;;;;;;;33.26;40.88;95945.41;5071079;28;20270;-66